Time;durP1;ratioP1;P1;durP2;ratioP2;P2;SDS_P1;SDS_P2;PMS_P1;PMS_P2;Temp;Humidity;BMP_temperature;BMP_pressure;BME280_temperature;BME280_humidity;BME280_pressure;Samples;Min_cycle;Max_cycle;Signal;HPM_P1;HPM_P2
2021/08/14 00:02:51;;;;;;;31.55;8.77;;;32.20;29.80;;;;;;21124848;27;81221;-77
2021/08/14 00:12:53;;;;;;;29.80;9.10;;;31.90;30.60;;;;;;21144885;27;81126;-73
2021/08/14 00:22:55;;;;;;;21.98;7.85;;;31.90;30.80;;;;;;21125243;27;80983;-77
2021/08/14 00:32:56;;;;;;;28.13;8.05;;;31.70;31.10;;;;;;21123627;27;80699;-79
2021/08/14 00:42:58;;;;;;;29.27;7.57;;;31.60;31.10;;;;;;21141551;27;82084;-75
2021/08/14 00:53:00;;;;;;;25.52;7.20;;;31.40;30.80;;;;;;21141044;27;80556;-77
2021/08/14 01:03:03;;;;;;;24.90;8.60;;;31.20;31.00;;;;;;21121249;27;80936;-79
2021/08/14 01:13:06;;;;;;;28.20;7.32;;;31.00;31.20;;;;;;21121673;27;80746;-79
2021/08/14 01:23:10;;;;;;;29.30;7.05;;;30.90;31.20;;;;;;21139986;27;81035;-79
2021/08/14 01:33:13;;;;;;;32.30;7.78;;;30.70;31.30;;;;;;21120551;27;79994;-79
2021/08/14 01:43:23;;;;;;;25.05;8.63;;;30.50;31.30;;;;;;21120986;27;81066;-80
2021/08/14 01:53:33;;;;;;;28.50;8.55;;;30.40;30.70;;;;;;21122336;27;80530;-80
2021/08/14 02:03:39;;;;;;;32.80;8.20;;;30.20;31.10;;;;;;21137385;27;80713;-78
2021/08/14 02:13:48;;;;;;;23.67;8.52;;;29.90;31.50;;;;;;21123936;27;80097;-79
2021/08/14 02:23:55;;;;;;;29.83;7.90;;;29.80;31.70;;;;;;21151002;27;80799;-80
2021/08/14 02:34:01;;;;;;;31.10;7.10;;;29.50;32.10;;;;;;21132643;27;81081;-79
2021/08/14 02:44:13;;;;;;;24.08;7.35;;;29.40;31.90;;;;;;21134141;27;82867;-77
2021/08/14 02:54:24;;;;;;;24.58;7.85;;;29.40;32.20;;;;;;21131823;27;80705;-80
2021/08/14 03:04:29;;;;;;;22.58;8.77;;;29.30;32.10;;;;;;21129611;27;79948;-79
2021/08/14 03:14:51;;;;;;;24.85;7.47;;;29.20;32.00;;;;;;21132306;27;80330;-79
2021/08/14 03:25:13;;;;;;;29.02;8.23;;;29.00;32.40;;;;;;21146250;27;80497;-80
2021/08/14 03:35:24;;;;;;;33.97;8.07;;;28.90;32.40;;;;;;21129342;27;80567;-80
2021/08/14 03:45:34;;;;;;;21.65;7.53;;;28.80;33.30;;;;;;21129350;27;81711;-80
2021/08/14 03:55:42;;;;;;;30.90;8.15;;;28.60;33.40;;;;;;21128208;27;79938;-81
2021/08/14 04:05:48;;;;;;;30.10;8.88;;;28.50;33.40;;;;;;21127230;27;80979;-77
2021/08/14 04:15:54;;;;;;;24.95;8.52;;;28.40;33.40;;;;;;21128616;27;79965;-79
2021/08/14 04:26:00;;;;;;;26.63;7.80;;;28.30;33.20;;;;;;21132180;27;80931;-80
2021/08/14 04:36:03;;;;;;;28.83;7.60;;;28.20;33.30;;;;;;21126754;27;80912;-80
2021/08/14 04:46:19;;;;;;;20.67;7.43;;;28.00;33.90;;;;;;21126798;27;80790;-77
2021/08/14 04:56:21;;;;;;;20.52;7.38;;;27.90;34.40;;;;;;21143282;27;80740;-80
2021/08/14 05:06:22;;;;;;;27.00;7.88;;;27.90;34.70;;;;;;21124801;27;80212;-80
2021/08/14 05:16:25;;;;;;;30.90;7.60;;;27.80;35.20;;;;;;21140850;27;80725;-76
2021/08/14 05:26:27;;;;;;;30.02;8.48;;;27.80;35.20;;;;;;21123388;27;80784;-80
2021/08/14 05:36:29;;;;;;;16.67;7.90;;;27.70;35.60;;;;;;21120932;27;81245;-78
2021/08/14 05:46:32;;;;;;;22.92;7.30;;;27.70;35.90;;;;;;21141999;27;81886;-78
2021/08/14 05:56:38;;;;;;;28.20;8.63;;;27.70;35.80;;;;;;21156130;27;80532;-77
2021/08/14 06:06:46;;;;;;;30.73;8.38;;;27.70;36.00;;;;;;21135253;27;81113;-81
2021/08/14 06:16:47;;;;;;;24.60;7.70;;;27.70;36.40;;;;;;21135896;27;80712;-78
2021/08/14 06:26:49;;;;;;;30.88;8.98;;;27.60;35.30;;;;;;21160295;27;80615;-76
2021/08/14 06:36:51;;;;;;;30.20;7.90;;;27.50;35.40;;;;;;21163250;27;80732;-81
2021/08/14 06:46:52;;;;;;;28.02;8.82;;;27.50;35.50;;;;;;21155684;27;81075;-76
2021/08/14 06:56:54;;;;;;;28.27;9.60;;;27.70;35.00;;;;;;21157345;27;80776;-75
2021/08/14 07:06:57;;;;;;;18.60;6.90;;;27.90;34.60;;;;;;21129594;27;80497;-79
2021/08/14 07:17:01;;;;;;;28.27;8.55;;;28.20;34.50;;;;;;21130288;27;80732;-80
2021/08/14 07:27:05;;;;;;;28.35;7.95;;;28.60;34.30;;;;;;21113273;27;80029;-79
2021/08/14 07:37:07;;;;;;;36.83;8.43;;;28.90;34.00;;;;;;21128475;27;81112;-80
2021/08/14 07:47:09;;;;;;;30.25;8.52;;;29.30;33.30;;;;;;21147195;27;81422;-79
2021/08/14 07:57:12;;;;;;;22.40;7.97;;;29.60;32.60;;;;;;21128267;27;80607;-80
2021/08/14 08:07:15;;;;;;;28.35;6.82;;;30.00;31.80;;;;;;21145964;27;81338;-81
2021/08/14 08:17:19;;;;;;;17.77;6.07;;;30.60;30.00;;;;;;21128538;27;81733;-81
2021/08/14 08:27:23;;;;;;;21.20;5.82;;;31.40;28.90;;;;;;21125122;27;81133;-67
2021/08/14 08:37:26;;;;;;;32.95;5.75;;;32.40;27.60;;;;;;21122780;27;80179;-66
2021/08/14 08:47:30;;;;;;;27.05;6.43;;;32.00;28.20;;;;;;21122942;27;80678;-72
2021/08/14 08:57:32;;;;;;;29.27;5.22;;;31.70;28.80;;;;;;21143053;27;80942;-72
2021/08/14 09:07:34;;;;;;;35.95;6.88;;;32.30;28.10;;;;;;21109563;27;81426;-70
2021/08/14 09:17:36;;;;;;;34.03;6.65;;;32.70;27.50;;;;;;21125511;27;80770;-70
2021/08/14 09:28:02;;;;;;;29.65;8.20;;;33.20;26.90;;;;;;21122975;27;81058;-74
2021/08/14 09:38:10;;;;;;;28.35;6.75;;;33.40;27.20;;;;;;21121073;27;81114;-68
2021/08/14 09:48:20;;;;;;;26.70;6.97;;;34.10;26.70;;;;;;21141021;27;80953;-67
2021/08/14 09:58:24;;;;;;;22.85;6.10;;;34.70;26.30;;;;;;21137310;27;80420;-68
2021/08/14 10:08:27;;;;;;;33.60;7.43;;;35.80;24.90;;;;;;21119089;27;81004;-68
2021/08/14 10:18:29;;;;;;;32.80;8.27;;;37.30;23.20;;;;;;21118157;27;81716;-68
2021/08/14 10:28:51;;;;;;;31.92;6.53;;;36.90;23.70;;;;;;21135829;27;80744;-80
2021/08/14 10:38:57;;;;;;;25.23;6.32;;;36.50;24.00;;;;;;21145177;27;81778;-68
2021/08/14 10:48:59;;;;;;;16.45;6.22;;;37.40;23.10;;;;;;21131568;27;81882;-69
2021/08/14 10:59:00;;;;;;;41.50;8.05;;;37.60;22.90;;;;;;21130632;27;80757;-67
2021/08/14 11:09:17;;;;;;;30.63;7.32;;;37.30;23.20;;;;;;21129793;27;81846;-66
2021/08/14 11:19:45;;;;;;;26.80;7.10;;;39.40;21.60;;;;;;21130638;27;81169;-64
2021/08/14 11:29:49;;;;;;;24.10;7.30;;;45.50;17.00;;;;;;21128467;27;81794;-67
2021/08/14 11:39:59;;;;;;;29.77;7.43;;;48.90;14.90;;;;;;21127858;27;80487;-68
2021/08/14 11:50:02;;;;;;;19.85;7.00;;;44.00;17.50;;;;;;21127847;27;80531;-66
2021/08/14 12:00:21;;;;;;;36.33;8.18;;;50.80;14.40;;;;;;21125309;27;80536;-74
2021/08/14 12:10:23;;;;;;;28.75;6.93;;;53.30;13.70;;;;;;21125827;27;81096;-70
2021/08/14 12:20:32;;;;;;;28.35;7.20;;;49.90;15.00;;;;;;21142278;27;80115;-73
2021/08/14 12:30:42;;;;;;;30.67;8.63;;;53.70;13.50;;;;;;21123436;27;82213;-69
2021/08/14 12:40:43;;;;;;;31.42;8.68;;;55.90;12.80;;;;;;21140618;27;80426;-66
2021/08/14 12:50:45;;;;;;;23.40;9.02;;;57.60;12.30;;;;;;21122947;27;80871;-67
2021/08/14 13:00:56;;;;;;;21.30;8.85;;;58.60;12.50;;;;;;21138531;27;80419;-72
2021/08/14 13:10:58;;;;;;;20.50;8.82;;;58.50;11.90;;;;;;21123315;27;81108;-73
2021/08/14 13:21:00;;;;;;;25.83;10.23;;;59.50;11.40;;;;;;21121951;27;81331;-73
2021/08/14 13:31:01;;;;;;;30.43;10.00;;;56.60;11.30;;;;;;21108242;27;82581;-74
2021/08/14 13:41:03;;;;;;;33.60;13.10;;;56.40;11.30;;;;;;21108574;27;83407;-75
2021/08/14 13:51:05;;;;;;;33.10;10.37;;;57.40;10.60;;;;;;21106995;27;83101;-69
2021/08/14 14:01:07;;;;;;;36.87;17.53;;;56.20;10.80;;;;;;21125477;27;84508;-72
2021/08/14 14:11:09;;;;;;;31.27;10.55;;;57.70;10.40;;;;;;21113446;27;83623;-68
2021/08/14 14:21:10;;;;;;;;;;;58.50;9.70;;;;;;21139345;27;85608;-70
2021/08/14 14:31:13;;;;;;;29.10;13.57;;;59.00;9.80;;;;;;21153625;27;83284;-73
2021/08/14 14:41:14;;;;;;;27.35;11.70;;;59.60;9.40;;;;;;21120964;27;82635;-68
2021/08/14 14:51:16;;;;;;;22.30;12.38;;;59.50;9.40;;;;;;21118958;27;82895;-69
2021/08/14 15:01:18;;;;;;;27.70;12.13;;;59.10;9.30;;;;;;21117333;27;83100;-69
2021/08/14 15:11:19;;;;;;;26.73;10.52;;;54.90;10.30;;;;;;21117901;27;83567;-69
2021/08/14 15:21:21;;;;;;;33.20;8.10;;;51.20;10.80;;;;;;21116728;27;83369;-67
2021/08/14 15:31:22;;;;;;;32.15;7.72;;;48.90;11.20;;;;;;21146412;27;82943;-69
2021/08/14 15:41:24;;;;;;;31.02;9.15;;;47.20;11.60;;;;;;21129006;27;80715;-66
2021/08/14 15:51:25;;;;;;;26.73;7.00;;;46.30;12.10;;;;;;21127804;27;80501;-67
2021/08/14 16:01:27;;;;;;;41.78;8.45;;;46.40;12.10;;;;;;21145450;27;79981;-67
2021/08/14 16:11:28;;;;;;;34.72;8.20;;;45.70;12.70;;;;;;21127993;27;82931;-68
2021/08/14 16:21:30;;;;;;;32.92;7.15;;;48.30;11.80;;;;;;21142745;27;80052;-72
2021/08/14 16:31:32;;;;;;;24.67;8.68;;;47.00;12.30;;;;;;21123097;27;80722;-74
2021/08/14 16:41:35;;;;;;;35.17;8.18;;;46.80;12.50;;;;;;21122766;27;80002;-71
2021/08/14 16:51:36;;;;;;;32.47;8.95;;;45.50;12.70;;;;;;21121086;27;81802;-75
2021/08/14 17:01:38;;;;;;;25.45;7.20;;;44.90;13.60;;;;;;21138806;27;81741;-69
2021/08/14 17:11:39;;;;;;;22.38;7.18;;;46.00;12.50;;;;;;21121107;27;80711;-68
2021/08/14 17:21:41;;;;;;;25.25;7.55;;;45.40;12.70;;;;;;21138237;27;80380;-71
2021/08/14 17:31:42;;;;;;;18.08;5.90;;;44.60;12.70;;;;;;21137283;27;80637;-67
2021/08/14 17:41:46;;;;;;;18.70;5.43;;;43.90;13.00;;;;;;21138534;27;80742;-79
2021/08/14 17:51:47;;;;;;;28.55;7.30;;;43.40;12.60;;;;;;21152264;27;80024;-67
2021/08/14 18:01:49;;;;;;;20.05;5.45;;;44.00;12.70;;;;;;21132132;27;80917;-70
2021/08/14 18:11:50;;;;;;;22.90;5.80;;;43.00;15.00;;;;;;21132889;27;80505;-67
2021/08/14 18:21:52;;;;;;;19.83;6.38;;;42.20;16.60;;;;;;21131426;27;80569;-73
2021/08/14 18:31:54;;;;;;;23.45;6.07;;;41.00;18.40;;;;;;21132956;27;81200;-73
2021/08/14 18:41:55;;;;;;;25.60;5.95;;;40.50;18.00;;;;;;21149809;27;80767;-71
2021/08/14 18:51:57;;;;;;;18.95;4.93;;;39.80;16.10;;;;;;21129980;27;81168;-72
2021/08/14 19:02:02;;;;;;;18.60;5.35;;;39.20;16.60;;;;;;21147522;27;83951;-73
2021/08/14 19:12:14;;;;;;;27.60;6.72;;;38.60;17.30;;;;;;21128799;27;82239;-73
2021/08/14 19:22:16;;;;;;;19.08;5.20;;;38.00;19.00;;;;;;21128430;27;81781;-71
2021/08/14 19:32:18;;;;;;;17.30;5.47;;;37.30;20.20;;;;;;21146369;27;81968;-73
2021/08/14 19:42:20;;;;;;;22.50;6.28;;;36.90;20.80;;;;;;21127503;27;81787;-73
2021/08/14 19:52:21;;;;;;;20.67;6.10;;;36.40;21.30;;;;;;21146222;27;80725;-73
2021/08/14 20:02:23;;;;;;;24.10;6.05;;;36.10;21.80;;;;;;21144368;27;80713;-74
2021/08/14 20:12:24;;;;;;;14.82;5.82;;;35.80;22.30;;;;;;21125334;27;80363;-72
2021/08/14 20:22:26;;;;;;;27.10;7.25;;;35.50;22.50;;;;;;21125520;27;80489;-72
2021/08/14 20:32:28;;;;;;;21.05;6.30;;;35.30;22.90;;;;;;21142799;27;81739;-73
2021/08/14 20:42:30;;;;;;;16.20;5.65;;;35.10;23.30;;;;;;21133255;27;80835;-72
2021/08/14 20:52:32;;;;;;;22.63;6.95;;;34.80;24.30;;;;;;21131201;27;80504;-72
2021/08/14 21:02:39;;;;;;;20.48;6.68;;;34.50;24.10;;;;;;21142931;27;81909;-72
2021/08/14 21:12:42;;;;;;;21.70;6.47;;;34.30;24.90;;;;;;21141617;27;80379;-72
2021/08/14 21:22:43;;;;;;;14.02;6.28;;;34.00;25.70;;;;;;21121412;27;80762;-72
2021/08/14 21:32:48;;;;;;;20.65;6.28;;;33.70;26.30;;;;;;21121558;27;80716;-73
2021/08/14 21:42:50;;;;;;;19.40;5.80;;;33.60;26.00;;;;;;21138389;27;80732;-72
2021/08/14 21:52:51;;;;;;;27.17;6.72;;;33.40;25.10;;;;;;21119123;27;80390;-72
2021/08/14 22:02:53;;;;;;;19.30;5.07;;;33.30;25.80;;;;;;21119438;27;80345;-73
2021/08/14 22:12:54;;;;;;;17.88;4.97;;;33.10;25.30;;;;;;21137607;27;80029;-72
2021/08/14 22:22:56;;;;;;;13.93;3.92;;;33.00;24.60;;;;;;21117852;27;81248;-71
2021/08/14 22:32:59;;;;;;;14.23;4.30;;;32.90;24.90;;;;;;21125591;27;81143;-72
2021/08/14 22:43:02;;;;;;;15.13;4.78;;;32.60;25.30;;;;;;21149392;27;80538;-72
2021/08/14 22:53:05;;;;;;;12.23;4.50;;;32.40;26.50;;;;;;21130774;27;80830;-72
2021/08/14 23:03:06;;;;;;;14.93;5.72;;;32.10;27.20;;;;;;21130090;27;81588;-72
2021/08/14 23:13:08;;;;;;;12.63;5.18;;;31.90;27.50;;;;;;21128889;27;81032;-72
2021/08/14 23:23:09;;;;;;;14.68;5.05;;;31.80;27.60;;;;;;21147605;27;80012;-74
2021/08/14 23:33:12;;;;;;;16.00;5.60;;;31.60;27.80;;;;;;21147143;27;80883;-72
2021/08/14 23:43:13;;;;;;;17.85;5.63;;;31.50;28.40;;;;;;21145300;27;80629;-73
2021/08/14 23:53:15;;;;;;;20.83;4.80;;;31.40;28.70;;;;;;21144488;27;80564;-73
